First View, Colorado
Current Conditions -  °F | °C
As of 4:53 AM on Friday 19 Dec 2014 (Local Time) from KITR Reporting Station
Clear Clear  
Wind Chill: 13°   Ceiling: Unl
Heat Index: 23°   Visibility: 10mi
Dew Point: 19°   Wind: 9mph
Humidity: 85%   Direction: 260°W
Pressure: 30.08"   Gusts: NA
Location:  38.8478°N, 102.453°W
Report Text: KITR 191153Z AUTO 26008KT 10SM CLR M05/M07 A3008 RMK AO2 SLP207 T10501072 11044 21061 55005
Loading
Personal Weather Stations






























Interactive Weather Map New forecast layout! Learn more

10-Day Weather Forecast

Advertisements
Track Severe Weather on mobile